sensor_id;sensor_type;location;lat;lon;timestamp;P1;durP1;ratioP1;P2;durP2;ratioP2
18917;SDS011;9591;52.742;13.650;2023-10-13T00:00:29;7.20;;;3.30;;
18917;SDS011;9591;52.742;13.650;2023-10-13T00:03:21;6.00;;;2.43;;
18917;SDS011;9591;52.742;13.650;2023-10-13T00:06:08;5.57;;;2.60;;
18917;SDS011;9591;52.742;13.650;2023-10-13T00:08:57;9.77;;;2.63;;
18917;SDS011;9591;52.742;13.650;2023-10-13T00:11:44;4.57;;;2.70;;
18917;SDS011;9591;52.742;13.650;2023-10-13T00:14:33;6.27;;;2.73;;
18917;SDS011;9591;52.742;13.650;2023-10-13T00:17:19;7.67;;;2.30;;
18917;SDS011;9591;52.742;13.650;2023-10-13T00:20:10;4.03;;;2.53;;
18917;SDS011;9591;52.742;13.650;2023-10-13T00:23:19;11.93;;;2.80;;
18917;SDS011;9591;52.742;13.650;2023-10-13T00:26:08;7.47;;;2.40;;
18917;SDS011;9591;52.742;13.650;2023-10-13T00:28:55;8.50;;;2.77;;
18917;SDS011;9591;52.742;13.650;2023-10-13T00:31:54;6.23;;;2.60;;
18917;SDS011;9591;52.742;13.650;2023-10-13T00:34:41;5.37;;;2.80;;
18917;SDS011;9591;52.742;13.650;2023-10-13T00:37:29;8.03;;;2.93;;
18917;SDS011;9591;52.742;13.650;2023-10-13T00:43:56;6.53;;;3.07;;
18917;SDS011;9591;52.742;13.650;2023-10-13T00:46:54;4.87;;;2.70;;
18917;SDS011;9591;52.742;13.650;2023-10-13T00:49:42;8.47;;;2.70;;
18917;SDS011;9591;52.742;13.650;2023-10-13T00:52:33;9.90;;;3.50;;
18917;SDS011;9591;52.742;13.650;2023-10-13T00:55:22;12.60;;;3.73;;
18917;SDS011;9591;52.742;13.650;2023-10-13T00:58:12;21.73;;;4.10;;
18917;SDS011;9591;52.742;13.650;2023-10-13T01:01:02;13.17;;;4.50;;
18917;SDS011;9591;52.742;13.650;2023-10-13T01:03:56;13.40;;;4.43;;
18917;SDS011;9591;52.742;13.650;2023-10-13T01:06:44;16.80;;;5.20;;
18917;SDS011;9591;52.742;13.650;2023-10-13T01:09:31;14.37;;;5.33;;
18917;SDS011;9591;52.742;13.650;2023-10-13T01:12:27;11.93;;;5.40;;
18917;SDS011;9591;52.742;13.650;2023-10-13T01:15:17;18.50;;;5.13;;
18917;SDS011;9591;52.742;13.650;2023-10-13T01:18:06;11.90;;;4.67;;
18917;SDS011;9591;52.742;13.650;2023-10-13T01:20:58;13.87;;;4.97;;
18917;SDS011;9591;52.742;13.650;2023-10-13T01:23:46;18.43;;;5.20;;
18917;SDS011;9591;52.742;13.650;2023-10-13T01:26:36;20.17;;;5.83;;
18917;SDS011;9591;52.742;13.650;2023-10-13T01:29:26;13.97;;;5.83;;
18917;SDS011;9591;52.742;13.650;2023-10-13T01:32:14;19.47;;;5.47;;
18917;SDS011;9591;52.742;13.650;2023-10-13T01:35:01;19.70;;;6.13;;
18917;SDS011;9591;52.742;13.650;2023-10-13T01:37:51;16.90;;;6.10;;
18917;SDS011;9591;52.742;13.650;2023-10-13T01:40:40;16.53;;;6.73;;
18917;SDS011;9591;52.742;13.650;2023-10-13T01:43:27;18.67;;;6.47;;
18917;SDS011;9591;52.742;13.650;2023-10-13T01:46:14;23.33;;;6.67;;
18917;SDS011;9591;52.742;13.650;2023-10-13T01:49:01;15.17;;;5.67;;
18917;SDS011;9591;52.742;13.650;2023-10-13T01:51:48;23.90;;;6.20;;
18917;SDS011;9591;52.742;13.650;2023-10-13T01:54:34;16.37;;;5.77;;
18917;SDS011;9591;52.742;13.650;2023-10-13T01:57:27;15.13;;;5.33;;
18917;SDS011;9591;52.742;13.650;2023-10-13T02:00:13;15.40;;;5.60;;
18917;SDS011;9591;52.742;13.650;2023-10-13T02:03:05;15.53;;;5.67;;
18917;SDS011;9591;52.742;13.650;2023-10-13T02:06:00;14.00;;;5.07;;
18917;SDS011;9591;52.742;13.650;2023-10-13T02:08:50;11.47;;;4.33;;
18917;SDS011;9591;52.742;13.650;2023-10-13T02:11:42;19.07;;;5.40;;
18917;SDS011;9591;52.742;13.650;2023-10-13T02:14:33;17.37;;;4.43;;
18917;SDS011;9591;52.742;13.650;2023-10-13T02:17:21;11.43;;;4.33;;
18917;SDS011;9591;52.742;13.650;2023-10-13T02:20:09;13.10;;;4.50;;
18917;SDS011;9591;52.742;13.650;2023-10-13T02:23:00;13.27;;;3.73;;
18917;SDS011;9591;52.742;13.650;2023-10-13T02:25:46;10.57;;;3.70;;
18917;SDS011;9591;52.742;13.650;2023-10-13T02:28:33;7.90;;;3.63;;
18917;SDS011;9591;52.742;13.650;2023-10-13T02:31:21;12.23;;;3.30;;
18917;SDS011;9591;52.742;13.650;2023-10-13T02:34:09;12.43;;;3.43;;
18917;SDS011;9591;52.742;13.650;2023-10-13T02:36:59;9.33;;;4.00;;
18917;SDS011;9591;52.742;13.650;2023-10-13T02:39:45;10.77;;;3.40;;
18917;SDS011;9591;52.742;13.650;2023-10-13T02:42:32;7.37;;;3.40;;
18917;SDS011;9591;52.742;13.650;2023-10-13T02:45:18;10.50;;;3.43;;
18917;SDS011;9591;52.742;13.650;2023-10-13T02:48:12;10.93;;;3.30;;
18917;SDS011;9591;52.742;13.650;2023-10-13T02:51:03;10.80;;;3.57;;
18917;SDS011;9591;52.742;13.650;2023-10-13T02:54:01;11.00;;;3.63;;
18917;SDS011;9591;52.742;13.650;2023-10-13T02:56:54;12.57;;;4.00;;
18917;SDS011;9591;52.742;13.650;2023-10-13T02:59:43;10.47;;;4.20;;
18917;SDS011;9591;52.742;13.650;2023-10-13T03:02:31;14.00;;;3.70;;
18917;SDS011;9591;52.742;13.650;2023-10-13T03:05:22;13.03;;;4.03;;
18917;SDS011;9591;52.742;13.650;2023-10-13T03:08:08;18.50;;;4.13;;
18917;SDS011;9591;52.742;13.650;2023-10-13T03:10:56;15.43;;;5.20;;
18917;SDS011;9591;52.742;13.650;2023-10-13T03:13:42;12.37;;;4.57;;
18917;SDS011;9591;52.742;13.650;2023-10-13T03:16:30;17.40;;;5.07;;
18917;SDS011;9591;52.742;13.650;2023-10-13T03:19:17;18.30;;;5.23;;
18917;SDS011;9591;52.742;13.650;2023-10-13T03:22:08;15.67;;;5.30;;
18917;SDS011;9591;52.742;13.650;2023-10-13T03:24:58;19.90;;;6.50;;
18917;SDS011;9591;52.742;13.650;2023-10-13T03:27:50;25.03;;;6.77;;
18917;SDS011;9591;52.742;13.650;2023-10-13T03:30:50;11.83;;;5.90;;
18917;SDS011;9591;52.742;13.650;2023-10-13T03:33:38;23.13;;;6.17;;
18917;SDS011;9591;52.742;13.650;2023-10-13T03:36:30;24.77;;;7.57;;
18917;SDS011;9591;52.742;13.650;2023-10-13T03:39:32;23.17;;;7.10;;
18917;SDS011;9591;52.742;13.650;2023-10-13T03:42:19;17.37;;;6.67;;
18917;SDS011;9591;52.742;13.650;2023-10-13T03:45:07;24.37;;;7.23;;
18917;SDS011;9591;52.742;13.650;2023-10-13T03:47:56;22.43;;;7.20;;
18917;SDS011;9591;52.742;13.650;2023-10-13T03:50:43;21.37;;;7.67;;
18917;SDS011;9591;52.742;13.650;2023-10-13T03:53:37;21.40;;;7.53;;
18917;SDS011;9591;52.742;13.650;2023-10-13T03:56:40;21.60;;;7.60;;
18917;SDS011;9591;52.742;13.650;2023-10-13T03:59:27;18.73;;;7.00;;
18917;SDS011;9591;52.742;13.650;2023-10-13T04:02:20;21.13;;;7.50;;
18917;SDS011;9591;52.742;13.650;2023-10-13T04:05:12;21.87;;;7.67;;
18917;SDS011;9591;52.742;13.650;2023-10-13T04:08:15;24.50;;;7.07;;
18917;SDS011;9591;52.742;13.650;2023-10-13T04:11:20;21.57;;;7.20;;
18917;SDS011;9591;52.742;13.650;2023-10-13T04:14:46;23.80;;;6.83;;
18917;SDS011;9591;52.742;13.650;2023-10-13T04:17:55;17.40;;;6.90;;
18917;SDS011;9591;52.742;13.650;2023-10-13T04:20:43;23.77;;;6.43;;
18917;SDS011;9591;52.742;13.650;2023-10-13T04:23:31;21.43;;;7.13;;
18917;SDS011;9591;52.742;13.650;2023-10-13T04:26:38;19.60;;;7.30;;
18917;SDS011;9591;52.742;13.650;2023-10-13T04:29:44;15.17;;;6.90;;
18917;SDS011;9591;52.742;13.650;2023-10-13T04:32:42;18.43;;;6.63;;
18917;SDS011;9591;52.742;13.650;2023-10-13T04:35:51;19.23;;;7.23;;
18917;SDS011;9591;52.742;13.650;2023-10-13T04:38:44;20.27;;;7.43;;
18917;SDS011;9591;52.742;13.650;2023-10-13T04:41:42;20.20;;;8.13;;
18917;SDS011;9591;52.742;13.650;2023-10-13T04:44:41;20.20;;;7.67;;
18917;SDS011;9591;52.742;13.650;2023-10-13T04:47:38;18.93;;;8.33;;
18917;SDS011;9591;52.742;13.650;2023-10-13T04:50:34;25.37;;;8.20;;
18917;SDS011;9591;52.742;13.650;2023-10-13T04:53:29;23.27;;;8.07;;
18917;SDS011;9591;52.742;13.650;2023-10-13T04:56:20;24.57;;;8.50;;
18917;SDS011;9591;52.742;13.650;2023-10-13T04:59:22;21.63;;;8.63;;
18917;SDS011;9591;52.742;13.650;2023-10-13T05:02:24;21.13;;;8.47;;
18917;SDS011;9591;52.742;13.650;2023-10-13T05:05:30;18.30;;;8.33;;
18917;SDS011;9591;52.742;13.650;2023-10-13T05:08:34;21.50;;;9.63;;
18917;SDS011;9591;52.742;13.650;2023-10-13T05:11:38;23.73;;;9.93;;
18917;SDS011;9591;52.742;13.650;2023-10-13T05:14:43;19.83;;;9.33;;
18917;SDS011;9591;52.742;13.650;2023-10-13T05:17:56;22.60;;;9.47;;
18917;SDS011;9591;52.742;13.650;2023-10-13T05:21:00;19.50;;;9.33;;
18917;SDS011;9591;52.742;13.650;2023-10-13T05:24:11;22.07;;;9.73;;
18917;SDS011;9591;52.742;13.650;2023-10-13T05:27:16;20.10;;;9.80;;
18917;SDS011;9591;52.742;13.650;2023-10-13T05:30:17;28.23;;;10.40;;
18917;SDS011;9591;52.742;13.650;2023-10-13T05:33:22;17.50;;;9.40;;
18917;SDS011;9591;52.742;13.650;2023-10-13T05:36:26;20.13;;;10.23;;
18917;SDS011;9591;52.742;13.650;2023-10-13T05:39:32;19.60;;;9.13;;
18917;SDS011;9591;52.742;13.650;2023-10-13T05:42:36;21.77;;;9.80;;
18917;SDS011;9591;52.742;13.650;2023-10-13T05:45:41;20.63;;;9.77;;
18917;SDS011;9591;52.742;13.650;2023-10-13T05:48:42;21.80;;;10.40;;
18917;SDS011;9591;52.742;13.650;2023-10-13T05:51:49;22.23;;;9.93;;
18917;SDS011;9591;52.742;13.650;2023-10-13T05:54:44;23.90;;;10.37;;
18917;SDS011;9591;52.742;13.650;2023-10-13T05:57:50;20.50;;;10.03;;
18917;SDS011;9591;52.742;13.650;2023-10-13T06:00:54;22.13;;;9.87;;
18917;SDS011;9591;52.742;13.650;2023-10-13T06:03:59;20.83;;;9.83;;
18917;SDS011;9591;52.742;13.650;2023-10-13T06:07:10;18.53;;;9.60;;
18917;SDS011;9591;52.742;13.650;2023-10-13T06:10:18;20.77;;;10.43;;
18917;SDS011;9591;52.742;13.650;2023-10-13T06:13:24;19.63;;;9.83;;
18917;SDS011;9591;52.742;13.650;2023-10-13T06:16:28;21.53;;;9.30;;
18917;SDS011;9591;52.742;13.650;2023-10-13T06:19:33;20.83;;;9.43;;
18917;SDS011;9591;52.742;13.650;2023-10-13T06:22:37;21.73;;;10.07;;
18917;SDS011;9591;52.742;13.650;2023-10-13T06:25:43;22.47;;;9.30;;
18917;SDS011;9591;52.742;13.650;2023-10-13T06:28:53;20.63;;;9.13;;
18917;SDS011;9591;52.742;13.650;2023-10-13T06:31:40;19.83;;;9.53;;
18917;SDS011;9591;52.742;13.650;2023-10-13T06:34:31;22.70;;;9.50;;
18917;SDS011;9591;52.742;13.650;2023-10-13T06:37:27;18.20;;;9.67;;
18917;SDS011;9591;52.742;13.650;2023-10-13T06:40:17;18.77;;;9.83;;
18917;SDS011;9591;52.742;13.650;2023-10-13T06:43:20;20.53;;;9.43;;
18917;SDS011;9591;52.742;13.650;2023-10-13T06:46:12;24.50;;;9.97;;
18917;SDS011;9591;52.742;13.650;2023-10-13T06:49:09;21.93;;;9.57;;
18917;SDS011;9591;52.742;13.650;2023-10-13T06:51:56;19.10;;;9.33;;
18917;SDS011;9591;52.742;13.650;2023-10-13T06:54:46;19.30;;;9.07;;
18917;SDS011;9591;52.742;13.650;2023-10-13T06:57:34;16.53;;;9.47;;
18917;SDS011;9591;52.742;13.650;2023-10-13T07:00:29;15.53;;;9.17;;
18917;SDS011;9591;52.742;13.650;2023-10-13T07:03:20;17.30;;;8.70;;
18917;SDS011;9591;52.742;13.650;2023-10-13T07:06:07;21.23;;;8.77;;
18917;SDS011;9591;52.742;13.650;2023-10-13T07:08:56;22.37;;;8.33;;
18917;SDS011;9591;52.742;13.650;2023-10-13T07:11:43;19.60;;;8.97;;
18917;SDS011;9591;52.742;13.650;2023-10-13T07:14:30;17.47;;;8.83;;
18917;SDS011;9591;52.742;13.650;2023-10-13T07:17:20;18.23;;;8.47;;
18917;SDS011;9591;52.742;13.650;2023-10-13T07:20:10;15.03;;;8.03;;
18917;SDS011;9591;52.742;13.650;2023-10-13T07:23:09;20.77;;;8.43;;
18917;SDS011;9591;52.742;13.650;2023-10-13T07:25:57;14.60;;;7.80;;
18917;SDS011;9591;52.742;13.650;2023-10-13T07:28:48;16.53;;;8.50;;
18917;SDS011;9591;52.742;13.650;2023-10-13T07:31:37;15.03;;;8.20;;
18917;SDS011;9591;52.742;13.650;2023-10-13T07:34:28;16.77;;;8.90;;
18917;SDS011;9591;52.742;13.650;2023-10-13T07:37:17;15.20;;;8.07;;
18917;SDS011;9591;52.742;13.650;2023-10-13T07:40:05;15.73;;;8.40;;
18917;SDS011;9591;52.742;13.650;2023-10-13T07:43:07;14.37;;;8.10;;
18917;SDS011;9591;52.742;13.650;2023-10-13T07:45:57;15.80;;;8.00;;
18917;SDS011;9591;52.742;13.650;2023-10-13T07:48:45;16.13;;;7.87;;
18917;SDS011;9591;52.742;13.650;2023-10-13T07:51:33;18.20;;;8.30;;
18917;SDS011;9591;52.742;13.650;2023-10-13T07:54:29;12.70;;;8.17;;
18917;SDS011;9591;52.742;13.650;2023-10-13T07:57:16;14.57;;;7.63;;
18917;SDS011;9591;52.742;13.650;2023-10-13T08:00:05;15.10;;;7.70;;
18917;SDS011;9591;52.742;13.650;2023-10-13T08:02:57;13.40;;;7.87;;
18917;SDS011;9591;52.742;13.650;2023-10-13T08:05:54;12.63;;;7.40;;
18917;SDS011;9591;52.742;13.650;2023-10-13T08:08:51;17.53;;;8.03;;
18917;SDS011;9591;52.742;13.650;2023-10-13T08:11:41;16.70;;;7.43;;
18917;SDS011;9591;52.742;13.650;2023-10-13T08:14:28;13.60;;;6.83;;
18917;SDS011;9591;52.742;13.650;2023-10-13T08:17:23;12.40;;;7.30;;
18917;SDS011;9591;52.742;13.650;2023-10-13T08:20:16;13.73;;;7.50;;
18917;SDS011;9591;52.742;13.650;2023-10-13T08:23:04;14.70;;;7.33;;
18917;SDS011;9591;52.742;13.650;2023-10-13T08:26:08;15.70;;;6.80;;
18917;SDS011;9591;52.742;13.650;2023-10-13T08:29:16;12.50;;;6.00;;
18917;SDS011;9591;52.742;13.650;2023-10-13T08:32:20;14.33;;;6.87;;
18917;SDS011;9591;52.742;13.650;2023-10-13T08:35:21;15.40;;;6.50;;
18917;SDS011;9591;52.742;13.650;2023-10-13T08:38:19;12.90;;;6.27;;
18917;SDS011;9591;52.742;13.650;2023-10-13T08:41:18;13.57;;;6.37;;
18917;SDS011;9591;52.742;13.650;2023-10-13T08:44:15;12.20;;;5.77;;
18917;SDS011;9591;52.742;13.650;2023-10-13T08:47:30;9.23;;;5.90;;
18917;SDS011;9591;52.742;13.650;2023-10-13T08:50:22;14.43;;;6.33;;
18917;SDS011;9591;52.742;13.650;2023-10-13T08:53:33;16.87;;;5.90;;
18917;SDS011;9591;52.742;13.650;2023-10-13T08:56:31;10.40;;;6.00;;
18917;SDS011;9591;52.742;13.650;2023-10-13T08:59:19;13.10;;;5.70;;
18917;SDS011;9591;52.742;13.650;2023-10-13T09:02:14;10.83;;;5.80;;
18917;SDS011;9591;52.742;13.650;2023-10-13T09:05:04;8.97;;;5.50;;
18917;SDS011;9591;52.742;13.650;2023-10-13T09:08:11;11.10;;;6.00;;
18917;SDS011;9591;52.742;13.650;2023-10-13T09:11:03;10.77;;;5.90;;
18917;SDS011;9591;52.742;13.650;2023-10-13T09:13:57;12.73;;;5.07;;
18917;SDS011;9591;52.742;13.650;2023-10-13T09:16:49;10.93;;;5.60;;
18917;SDS011;9591;52.742;13.650;2023-10-13T09:19:53;13.33;;;5.30;;
18917;SDS011;9591;52.742;13.650;2023-10-13T09:22:42;13.40;;;4.70;;
18917;SDS011;9591;52.742;13.650;2023-10-13T09:25:28;12.17;;;5.13;;
18917;SDS011;9591;52.742;13.650;2023-10-13T09:28:18;12.83;;;4.77;;
18917;SDS011;9591;52.742;13.650;2023-10-13T09:31:08;11.33;;;5.10;;
18917;SDS011;9591;52.742;13.650;2023-10-13T09:33:55;12.27;;;5.10;;
18917;SDS011;9591;52.742;13.650;2023-10-13T09:36:43;8.57;;;5.17;;
18917;SDS011;9591;52.742;13.650;2023-10-13T09:39:33;9.23;;;5.70;;
18917;SDS011;9591;52.742;13.650;2023-10-13T09:42:27;17.70;;;5.20;;
18917;SDS011;9591;52.742;13.650;2023-10-13T09:45:16;15.57;;;5.30;;
18917;SDS011;9591;52.742;13.650;2023-10-13T09:48:07;9.53;;;4.97;;
18917;SDS011;9591;52.742;13.650;2023-10-13T09:51:02;10.03;;;5.07;;
18917;SDS011;9591;52.742;13.650;2023-10-13T09:53:55;11.30;;;4.80;;
18917;SDS011;9591;52.742;13.650;2023-10-13T09:57:12;7.30;;;4.87;;
18917;SDS011;9591;52.742;13.650;2023-10-13T10:00:09;7.47;;;4.73;;
18917;SDS011;9591;52.742;13.650;2023-10-13T10:03:14;9.87;;;4.53;;
18917;SDS011;9591;52.742;13.650;2023-10-13T10:06:20;11.00;;;5.20;;
18917;SDS011;9591;52.742;13.650;2023-10-13T10:09:13;10.10;;;4.83;;
18917;SDS011;9591;52.742;13.650;2023-10-13T10:12:06;10.70;;;4.93;;
18917;SDS011;9591;52.742;13.650;2023-10-13T10:15:07;10.80;;;4.83;;
18917;SDS011;9591;52.742;13.650;2023-10-13T10:18:21;8.40;;;4.30;;
18917;SDS011;9591;52.742;13.650;2023-10-13T10:21:11;6.80;;;4.83;;
18917;SDS011;9591;52.742;13.650;2023-10-13T10:24:00;8.53;;;3.97;;
18917;SDS011;9591;52.742;13.650;2023-10-13T10:26:58;9.57;;;5.43;;
18917;SDS011;9591;52.742;13.650;2023-10-13T10:29:52;6.83;;;4.40;;
18917;SDS011;9591;52.742;13.650;2023-10-13T10:32:40;8.97;;;4.90;;
18917;SDS011;9591;52.742;13.650;2023-10-13T10:35:28;9.00;;;4.97;;
18917;SDS011;9591;52.742;13.650;2023-10-13T10:38:18;9.47;;;5.07;;
18917;SDS011;9591;52.742;13.650;2023-10-13T10:41:24;7.93;;;4.50;;
18917;SDS011;9591;52.742;13.650;2023-10-13T10:44:15;9.67;;;4.77;;
18917;SDS011;9591;52.742;13.650;2023-10-13T10:47:11;11.87;;;4.70;;
18917;SDS011;9591;52.742;13.650;2023-10-13T10:50:05;10.43;;;4.37;;
18917;SDS011;9591;52.742;13.650;2023-10-13T10:53:06;7.10;;;4.67;;
18917;SDS011;9591;52.742;13.650;2023-10-13T10:55:54;8.60;;;4.87;;
18917;SDS011;9591;52.742;13.650;2023-10-13T10:58:53;7.27;;;4.23;;
18917;SDS011;9591;52.742;13.650;2023-10-13T11:01:45;10.53;;;5.10;;
18917;SDS011;9591;52.742;13.650;2023-10-13T11:04:36;8.93;;;5.57;;
18917;SDS011;9591;52.742;13.650;2023-10-13T11:07:36;9.73;;;4.70;;
18917;SDS011;9591;52.742;13.650;2023-10-13T11:10:24;10.00;;;5.43;;
18917;SDS011;9591;52.742;13.650;2023-10-13T11:13:13;9.60;;;5.57;;
18917;SDS011;9591;52.742;13.650;2023-10-13T11:16:07;10.03;;;5.20;;
18917;SDS011;9591;52.742;13.650;2023-10-13T11:19:01;11.30;;;5.47;;
18917;SDS011;9591;52.742;13.650;2023-10-13T11:21:51;10.27;;;5.33;;
18917;SDS011;9591;52.742;13.650;2023-10-13T11:24:39;13.93;;;4.93;;
18917;SDS011;9591;52.742;13.650;2023-10-13T11:27:31;7.60;;;4.60;;
18917;SDS011;9591;52.742;13.650;2023-10-13T11:30:41;9.60;;;5.50;;
18917;SDS011;9591;52.742;13.650;2023-10-13T11:33:30;9.00;;;5.30;;
18917;SDS011;9591;52.742;13.650;2023-10-13T11:36:17;8.70;;;4.70;;
18917;SDS011;9591;52.742;13.650;2023-10-13T11:39:08;10.83;;;5.33;;
18917;SDS011;9591;52.742;13.650;2023-10-13T11:41:54;11.03;;;5.83;;
18917;SDS011;9591;52.742;13.650;2023-10-13T11:44:43;6.67;;;4.90;;
18917;SDS011;9591;52.742;13.650;2023-10-13T11:47:30;11.00;;;5.73;;
18917;SDS011;9591;52.742;13.650;2023-10-13T11:50:33;10.70;;;5.00;;
18917;SDS011;9591;52.742;13.650;2023-10-13T11:53:21;9.00;;;5.10;;
18917;SDS011;9591;52.742;13.650;2023-10-13T11:56:08;8.37;;;5.47;;
18917;SDS011;9591;52.742;13.650;2023-10-13T11:58:55;12.83;;;5.53;;
18917;SDS011;9591;52.742;13.650;2023-10-13T12:01:48;7.03;;;4.63;;
18917;SDS011;9591;52.742;13.650;2023-10-13T12:04:54;9.07;;;5.30;;
18917;SDS011;9591;52.742;13.650;2023-10-13T12:07:42;8.80;;;4.83;;
18917;SDS011;9591;52.742;13.650;2023-10-13T12:10:34;10.77;;;5.20;;
18917;SDS011;9591;52.742;13.650;2023-10-13T12:13:34;9.70;;;4.87;;
18917;SDS011;9591;52.742;13.650;2023-10-13T12:16:21;8.13;;;5.00;;
18917;SDS011;9591;52.742;13.650;2023-10-13T12:19:09;7.90;;;5.37;;
18917;SDS011;9591;52.742;13.650;2023-10-13T12:21:57;11.67;;;5.80;;
18917;SDS011;9591;52.742;13.650;2023-10-13T12:24:49;9.40;;;4.43;;
18917;SDS011;9591;52.742;13.650;2023-10-13T12:27:38;7.10;;;4.90;;
18917;SDS011;9591;52.742;13.650;2023-10-13T12:30:33;12.10;;;5.30;;
18917;SDS011;9591;52.742;13.650;2023-10-13T12:33:35;16.43;;;5.30;;
18917;SDS011;9591;52.742;13.650;2023-10-13T12:36:27;9.50;;;4.70;;
18917;SDS011;9591;52.742;13.650;2023-10-13T12:39:26;15.17;;;5.30;;
18917;SDS011;9591;52.742;13.650;2023-10-13T12:42:30;11.77;;;4.80;;
18917;SDS011;9591;52.742;13.650;2023-10-13T12:45:37;9.97;;;4.57;;
18917;SDS011;9591;52.742;13.650;2023-10-13T12:48:42;11.63;;;5.10;;
18917;SDS011;9591;52.742;13.650;2023-10-13T12:52:04;10.13;;;5.63;;
18917;SDS011;9591;52.742;13.650;2023-10-13T12:55:01;12.03;;;4.73;;
18917;SDS011;9591;52.742;13.650;2023-10-13T12:57:52;7.30;;;4.47;;
18917;SDS011;9591;52.742;13.650;2023-10-13T13:00:39;9.70;;;4.63;;
18917;SDS011;9591;52.742;13.650;2023-10-13T13:03:35;11.50;;;5.10;;
18917;SDS011;9591;52.742;13.650;2023-10-13T13:06:23;10.90;;;4.67;;
18917;SDS011;9591;52.742;13.650;2023-10-13T13:09:12;12.20;;;4.90;;
18917;SDS011;9591;52.742;13.650;2023-10-13T13:11:59;10.70;;;4.67;;
18917;SDS011;9591;52.742;13.650;2023-10-13T13:14:46;12.73;;;4.63;;
18917;SDS011;9591;52.742;13.650;2023-10-13T13:17:33;12.20;;;4.63;;
18917;SDS011;9591;52.742;13.650;2023-10-13T13:20:20;10.67;;;4.57;;
18917;SDS011;9591;52.742;13.650;2023-10-13T13:23:13;10.57;;;4.70;;
18917;SDS011;9591;52.742;13.650;2023-10-13T13:26:04;7.83;;;4.23;;
18917;SDS011;9591;52.742;13.650;2023-10-13T13:29:01;11.67;;;4.77;;
18917;SDS011;9591;52.742;13.650;2023-10-13T13:31:50;10.00;;;4.53;;
18917;SDS011;9591;52.742;13.650;2023-10-13T13:34:37;8.73;;;4.53;;
18917;SDS011;9591;52.742;13.650;2023-10-13T13:37:24;9.07;;;4.43;;
18917;SDS011;9591;52.742;13.650;2023-10-13T13:40:13;11.37;;;4.80;;
18917;SDS011;9591;52.742;13.650;2023-10-13T13:43:02;9.43;;;4.67;;
18917;SDS011;9591;52.742;13.650;2023-10-13T13:45:50;7.47;;;4.57;;
18917;SDS011;9591;52.742;13.650;2023-10-13T13:48:43;15.43;;;5.37;;
18917;SDS011;9591;52.742;13.650;2023-10-13T13:51:35;12.37;;;4.93;;
18917;SDS011;9591;52.742;13.650;2023-10-13T13:54:23;12.57;;;5.87;;
18917;SDS011;9591;52.742;13.650;2023-10-13T13:57:13;12.93;;;5.10;;
18917;SDS011;9591;52.742;13.650;2023-10-13T14:00:01;11.13;;;4.80;;
18917;SDS011;9591;52.742;13.650;2023-10-13T14:02:53;9.97;;;5.07;;
18917;SDS011;9591;52.742;13.650;2023-10-13T14:05:41;11.20;;;4.50;;
18917;SDS011;9591;52.742;13.650;2023-10-13T14:08:28;9.23;;;4.63;;
18917;SDS011;9591;52.742;13.650;2023-10-13T14:11:15;7.97;;;4.73;;
18917;SDS011;9591;52.742;13.650;2023-10-13T14:14:28;14.37;;;4.80;;
18917;SDS011;9591;52.742;13.650;2023-10-13T14:17:15;9.63;;;4.60;;
18917;SDS011;9591;52.742;13.650;2023-10-13T14:20:02;8.47;;;4.53;;
18917;SDS011;9591;52.742;13.650;2023-10-13T14:23:03;8.63;;;4.77;;
18917;SDS011;9591;52.742;13.650;2023-10-13T14:25:52;12.77;;;5.07;;
18917;SDS011;9591;52.742;13.650;2023-10-13T14:28:40;17.53;;;5.17;;
18917;SDS011;9591;52.742;13.650;2023-10-13T14:31:37;8.43;;;4.30;;
18917;SDS011;9591;52.742;13.650;2023-10-13T14:34:26;9.10;;;4.47;;
18917;SDS011;9591;52.742;13.650;2023-10-13T14:37:13;10.00;;;4.50;;
18917;SDS011;9591;52.742;13.650;2023-10-13T14:40:06;13.13;;;4.57;;
18917;SDS011;9591;52.742;13.650;2023-10-13T14:42:57;12.17;;;4.87;;
18917;SDS011;9591;52.742;13.650;2023-10-13T14:45:44;12.27;;;4.53;;
18917;SDS011;9591;52.742;13.650;2023-10-13T14:48:33;11.70;;;5.90;;
18917;SDS011;9591;52.742;13.650;2023-10-13T14:51:25;14.23;;;4.83;;
18917;SDS011;9591;52.742;13.650;2023-10-13T14:54:13;21.23;;;5.00;;
18917;SDS011;9591;52.742;13.650;2023-10-13T14:57:01;20.00;;;4.90;;
18917;SDS011;9591;52.742;13.650;2023-10-13T14:59:48;8.70;;;4.27;;
18917;SDS011;9591;52.742;13.650;2023-10-13T15:02:35;15.90;;;5.07;;
18917;SDS011;9591;52.742;13.650;2023-10-13T15:05:22;9.47;;;4.60;;
18917;SDS011;9591;52.742;13.650;2023-10-13T15:08:10;16.53;;;5.30;;
18917;SDS011;9591;52.742;13.650;2023-10-13T15:11:07;11.27;;;4.63;;
18917;SDS011;9591;52.742;13.650;2023-10-13T15:13:58;15.93;;;5.07;;
18917;SDS011;9591;52.742;13.650;2023-10-13T15:16:45;15.20;;;4.83;;
18917;SDS011;9591;52.742;13.650;2023-10-13T15:19:31;15.03;;;5.10;;
18917;SDS011;9591;52.742;13.650;2023-10-13T15:22:23;12.70;;;4.60;;
18917;SDS011;9591;52.742;13.650;2023-10-13T15:25:14;9.60;;;5.03;;
18917;SDS011;9591;52.742;13.650;2023-10-13T15:28:14;15.00;;;4.77;;
18917;SDS011;9591;52.742;13.650;2023-10-13T15:31:12;10.30;;;4.77;;
18917;SDS011;9591;52.742;13.650;2023-10-13T15:34:11;10.43;;;4.90;;
18917;SDS011;9591;52.742;13.650;2023-10-13T15:37:00;13.43;;;5.03;;
18917;SDS011;9591;52.742;13.650;2023-10-13T15:39:50;10.23;;;5.00;;
18917;SDS011;9591;52.742;13.650;2023-10-13T15:42:40;15.97;;;4.83;;
18917;SDS011;9591;52.742;13.650;2023-10-13T15:45:29;13.20;;;4.97;;
18917;SDS011;9591;52.742;13.650;2023-10-13T15:48:24;18.27;;;5.60;;
18917;SDS011;9591;52.742;13.650;2023-10-13T15:51:13;13.93;;;5.00;;
18917;SDS011;9591;52.742;13.650;2023-10-13T15:54:00;10.77;;;4.60;;
18917;SDS011;9591;52.742;13.650;2023-10-13T15:56:47;11.13;;;4.37;;
18917;SDS011;9591;52.742;13.650;2023-10-13T15:59:37;17.03;;;5.00;;
18917;SDS011;9591;52.742;13.650;2023-10-13T16:02:24;8.97;;;4.43;;
18917;SDS011;9591;52.742;13.650;2023-10-13T16:05:11;10.10;;;4.57;;
18917;SDS011;9591;52.742;13.650;2023-10-13T16:07:58;12.50;;;4.83;;
18917;SDS011;9591;52.742;13.650;2023-10-13T16:10:45;12.13;;;5.10;;
18917;SDS011;9591;52.742;13.650;2023-10-13T16:13:32;14.03;;;4.30;;
18917;SDS011;9591;52.742;13.650;2023-10-13T16:16:21;21.33;;;4.60;;
18917;SDS011;9591;52.742;13.650;2023-10-13T16:19:08;11.23;;;5.33;;
18917;SDS011;9591;52.742;13.650;2023-10-13T16:21:55;9.43;;;4.67;;
18917;SDS011;9591;52.742;13.650;2023-10-13T16:24:42;10.80;;;5.03;;
18917;SDS011;9591;52.742;13.650;2023-10-13T16:27:33;14.30;;;5.10;;
18917;SDS011;9591;52.742;13.650;2023-10-13T16:30:24;16.63;;;4.60;;
18917;SDS011;9591;52.742;13.650;2023-10-13T16:33:12;9.53;;;4.50;;
18917;SDS011;9591;52.742;13.650;2023-10-13T16:36:00;13.50;;;4.73;;
18917;SDS011;9591;52.742;13.650;2023-10-13T16:38:50;15.90;;;4.70;;
18917;SDS011;9591;52.742;13.650;2023-10-13T16:41:37;16.67;;;4.30;;
18917;SDS011;9591;52.742;13.650;2023-10-13T16:44:26;12.50;;;4.63;;
18917;SDS011;9591;52.742;13.650;2023-10-13T16:47:13;12.27;;;4.83;;
18917;SDS011;9591;52.742;13.650;2023-10-13T16:50:01;15.00;;;4.83;;
18917;SDS011;9591;52.742;13.650;2023-10-13T16:52:48;14.47;;;5.03;;
18917;SDS011;9591;52.742;13.650;2023-10-13T16:55:35;8.00;;;4.40;;
18917;SDS011;9591;52.742;13.650;2023-10-13T16:58:26;11.83;;;5.23;;
18917;SDS011;9591;52.742;13.650;2023-10-13T17:01:15;10.57;;;4.83;;
18917;SDS011;9591;52.742;13.650;2023-10-13T17:04:04;9.77;;;5.07;;
18917;SDS011;9591;52.742;13.650;2023-10-13T17:06:53;10.83;;;4.57;;
18917;SDS011;9591;52.742;13.650;2023-10-13T17:09:40;12.13;;;4.27;;
18917;SDS011;9591;52.742;13.650;2023-10-13T17:12:30;11.50;;;4.93;;
18917;SDS011;9591;52.742;13.650;2023-10-13T17:15:19;17.80;;;5.07;;